Flight Track Log - Related Links

Times and Time Zones

All times are in EST time to prevent confusion due to time zone crossing. See the C-FZQP flight status page for this flight to view local times or setup timezone preferences in your user account.

Time Position Orientation Groundspeed Altitude Reporting Facility
EST Latitude Longitude Course Direction KTS MPH feet Rate Location/Type
Sat 08:38:30 PM 39.5367 -104.8686 212° Southwest 185 213 7,900  Level Denver Center
Sat 08:39:30 PM 39.4789 -104.9156 212° Southwest 224 258 8,400 1,350 Climbing Denver Center
Sat 08:40:30 PM 39.4108 -104.9708 212° Southwest 278 320 10,600 2,700 Climbing Denver Center
Sat 08:41:30 PM 39.3325 -105.0344 192° South 317 365 13,800 3,350 Climbing Denver Center
Sat 08:42:30 PM 39.2450 -105.0575 181° South 331 381 17,300 3,400 Climbing Denver Center
Sat 08:43:30 PM 39.1514 -105.0594 203° Southwest 331 381 20,600 2,950 Climbing Denver Center
Sat 08:44:30 PM 39.0603 -105.1094 204° Southwest 341 392 23,200 2,550 Climbing Denver Center
Sat 08:45:30 PM 38.9650 -105.1647 208° Southwest 365 420 25,700 2,400 Climbing Denver Center
Sat 08:46:30 PM 38.8697 -105.2306 229° Southwest 385 443 28,000 2,050 Climbing Denver Center
Sat 08:47:30 PM 38.7958 -105.3383 229° Southwest 404 465 29,800 1,700 Climbing Denver Center
Sat 08:48:30 PM 38.7281 -105.4378 228° Southwest 415 478 31,400 1,200 Climbing Denver Center
Sat 08:49:30 PM 38.6456 -105.5561 228° Southwest 437 503 32,200 1,350 Climbing Denver Center
Sat 08:50:30 PM 38.5650 -105.6714 228° Southwest 445 512 34,100 1,850 Climbing Denver Center
Sat 08:51:30 PM 38.4886 -105.7808 233° Southwest 428 493 35,900 950 Climbing Denver Center
Sat 08:52:30 PM 38.4103 -105.9114 227° Southwest 423 487 36,000 50 Climbing Denver Center
Sat 08:53:30 PM 38.3356 -106.0153 229° Southwest 437 503 36,000  Level Denver Center
Sat 08:54:30 PM 38.2567 -106.1319 227° Southwest 444 511 36,000  Level Denver Center
Sat 08:55:30 PM 38.1633 -106.2592 228° Southwest 450 518 36,000  Level Denver Center
Sat 08:56:30 PM 38.0944 -106.3569 230° Southwest 451 519 36,000  Level Denver Center
Sat 08:57:30 PM 38.0092 -106.4836 228° Southwest 442 509 36,000  Level Denver Center
Sat 08:58:30 PM 37.9256 -106.5994 228° Southwest 442 509 36,000  Level Denver Center
Sat 08:59:30 PM 37.8358 -106.7253 228° Southwest 442 509 36,000 150 Level Denver Center
Sat 09:00:30 PM 37.7625 -106.8275 228° Southwest 442 509 36,300 350 Climbing Denver Center
Sat 09:01:30 PM 37.6703 -106.9581 227° Southwest 442 509 36,700 350 Climbing Denver Center
Sat 09:02:30 PM 37.5864 -107.0728 229° Southwest 448 516 37,000 150 Climbing Denver Center
Sat 09:03:30 PM 37.5108 -107.1819 227° Southwest 454 522 37,000  Level Denver Center
Sat 09:04:30 PM 37.4267 -107.2961 228° Southwest 454 522 37,000  Level Denver Center
Sat 09:05:30 PM 37.3339 -107.4256 228° Southwest 461 531 37,000  Level Denver Center
Sat 09:06:30 PM 37.2475 -107.5442 228° Southwest 461 531 37,000  Level Denver Center
Sat 09:07:30 PM 37.1714 -107.6500 228° Southwest 466 536 37,000  Level Denver Center
Sat 09:08:30 PM 37.0783 -107.7783 227° Southwest 459 528 37,000  Level Denver Center
Sat 09:09:30 PM 36.9933 -107.8939 227° Southwest 459 528 37,000  Level Denver Center
Sat 09:10:30 PM 36.9108 -108.0064 228° Southwest 459 528 37,000  Level Denver Center
Sat 09:11:30 PM 36.8364 -108.1083 227° Southwest 459 528 37,000  Level Denver Center
Sat 09:12:30 PM 36.7450 -108.2306 227° Southwest 447 514 37,000  Level Denver Center
Sat 09:13:30 PM 36.6639 -108.3400 226° Southwest 442 509 37,000  Level Denver Center
Sat 09:14:30 PM 36.5808 -108.4489 228° Southwest 436 502 37,000  Level Denver Center
Sat 09:15:30 PM 36.5083 -108.5475 227° Southwest 436 502 37,000  Level Denver Center
Sat 09:16:30 PM 36.4164 -108.6714 227° Southwest 436 502 37,000  Level Denver Center
Sat 09:17:30 PM 36.3328 -108.7822 227° Southwest 436 502 37,000  Level Denver Center
Sat 09:18:30 PM 36.2558 -108.8853 228° Southwest 441 507 37,000  Level Denver Center
Sat 09:19:30 PM 36.1633 -109.0106 225° Southwest 446 513 37,000  Level Denver Center
Sat 09:20:30 PM 36.0756 -109.1181 226° Southwest 446 513 37,000  Level Denver Center
Sat 09:22:17 PM 35.9297 -109.3031 226° Southwest 459 528 37,000  Level Albuquerque Center
Sat 09:23:17 PM 35.8444 -109.4136 227° Southwest 453 521 37,000  Level Albuquerque Center
Sat 09:24:17 PM 35.7483 -109.5392 226° Southwest 453 521 37,000  Level Albuquerque Center
Sat 09:25:17 PM 35.6628 -109.6494 227° Southwest 453 521 37,000  Level Albuquerque Center
Sat 09:26:17 PM 35.5856 -109.7519 226° Southwest 458 527 37,000  Level Albuquerque Center
Sat 09:27:17 PM 35.4978 -109.8642 226° Southwest 463 533 37,000  Level Albuquerque Center
Sat 09:28:17 PM 35.4011 -109.9883 227° Southwest 463 533 37,000  Level Albuquerque Center
Sat 09:29:17 PM 35.3172 -110.1003 228° Southwest 463 533 37,000  Level Albuquerque Center
Sat 09:30:17 PM 35.2397 -110.2044 226° Southwest 463 533 37,000 -550 Level Albuquerque Center
Sat 09:31:17 PM 35.1514 -110.3181 227° Southwest 463 533 35,900 -1,300 Descending Albuquerque Center
Sat 09:32:17 PM 35.0544 -110.4439 227° Southwest 463 533 34,400 -1,400 Descending Albuquerque Center
Sat 09:33:17 PM 34.9658 -110.5597 227° Southwest 468 539 33,100 -1,250 Descending Albuquerque Center
Sat 09:34:17 PM 34.8858 -110.6656 229° Southwest 468 539 31,900 -1,339 Descending Albuquerque Center
Sat 09:35:18 PM 34.7989 -110.7858 227° Southwest 476 548 30,400 -1,800 Descending Albuquerque Center
Sat 09:36:17 PM 34.7078 -110.9033 225° Southwest 481 554 28,300 -1,613 Descending Albuquerque Center
Sat 09:37:17 PM 34.6147 -111.0181 227° Southwest 481 554 27,200 -1,750 Descending Albuquerque Center
Sat 09:38:17 PM 34.5189 -111.1422 225° Southwest 481 554 24,800 -3,000 Descending Albuquerque Center
Sat 09:39:17 PM 34.4364 -111.2417 227° Southwest 468 539 21,200 -3,650 Descending Albuquerque Center
Sat 09:40:17 PM 34.3383 -111.3703 227° Southwest 468 539 17,500 -3,600 Descending Albuquerque Center
Sat 09:41:17 PM 34.2556 -111.4769 226° Southwest 462 532 14,000 -3,100 Descending Albuquerque Center
Sat 09:42:17 PM 34.1811 -111.5711 226° Southwest 430 495 11,300 -1,550 Descending Albuquerque Center
Sat 09:43:17 PM 34.1244 -111.6408 227° Southwest 364 419 10,900 -250 Descending Albuquerque Center
Sat 09:44:17 PM 34.0675 -111.7133 221° Southwest 314 361 10,800 -750 Descending Albuquerque Center
Sat 09:45:17 PM 34.0047 -111.7800 223° Southwest 303 349 9,400 -1,400 Descending Albuquerque Center
Sat 09:46:17 PM 33.9481 -111.8447 233° Southwest 290 334 8,000 -1,007 Descending Albuquerque Center
Sat 09:47:40 PM 33.8903 -111.9367 243° Southwest 230 265 7,000 -739 Descending Albuquerque Center
Sat 09:48:35 PM 33.8650 -111.9953 242° Southwest 211 243 6,300 -569 Descending Albuquerque Center
Sat 09:49:36 PM 33.8308 -112.0733 248° West 257 296 5,900 -694 Descending Albuquerque Center
Sat 09:50:36 PM 33.8047 -112.1517 227° Southwest 269 310 4,900 -694 Descending Albuquerque Center
Sat 09:51:37 PM 33.7672 -112.1994 189° South 205 236 4,500 -678 Descending Albuquerque Center
Sat 09:52:31 PM 33.7189 -112.2092 187° South 213 245 3,600 -574 Descending Albuquerque Center
Sat 09:53:32 PM 33.6706 -112.2164 203° Southwest 156 180 3,400 -246 Descending Albuquerque Center
Sat 09:54:33 PM 33.6344 -112.2344 205° Southwest 142 163 3,100 -397 Descending Albuquerque Center
Sat 09:55:33 PM 33.5981 -112.2547 205° Southwest 145 167 2,600 -645 Descending Albuquerque Center
Sat 09:56:34 PM 33.5619 -112.2750 209° Southwest 138 159 1,800 -744 Descending Albuquerque Center
Sat 09:57:34 PM 33.5339 -112.2933 209° Southwest 131 151 1,100 -700 Descending Albuquerque Center

Login

Don't have an account? Register now (free) for customized features, flight alerts, and more!